sensor_id;sensor_type;location;lat;lon;timestamp;pressure;altitude;pressure_sealevel;temperature;humidity
32131;BME280;18639;50.716;7.086;2023-04-25T00:02:20;99811.97;;;8.83;100.00
32131;BME280;18639;50.716;7.086;2023-04-25T00:04:45;99824.97;;;8.95;100.00
32131;BME280;18639;50.716;7.086;2023-04-25T00:07:11;99814.97;;;8.90;100.00
32131;BME280;18639;50.716;7.086;2023-04-25T00:09:36;99832.72;;;8.95;100.00
32131;BME280;18639;50.716;7.086;2023-04-25T00:12:02;99803.31;;;8.84;100.00
32131;BME280;18639;50.716;7.086;2023-04-25T00:14:28;99821.56;;;8.94;100.00
32131;BME280;18639;50.716;7.086;2023-04-25T00:16:54;99831.44;;;8.87;100.00
32131;BME280;18639;50.716;7.086;2023-04-25T00:19:19;99825.91;;;8.81;100.00
32131;BME280;18639;50.716;7.086;2023-04-25T00:21:45;99826.38;;;8.73;100.00
32131;BME280;18639;50.716;7.086;2023-04-25T00:24:11;99818.13;;;8.68;100.00
32131;BME280;18639;50.716;7.086;2023-04-25T00:26:37;99828.53;;;8.67;100.00
32131;BME280;18639;50.716;7.086;2023-04-25T00:29:02;99827.00;;;8.64;100.00
32131;BME280;18639;50.716;7.086;2023-04-25T00:31:28;99819.44;;;8.61;100.00
32131;BME280;18639;50.716;7.086;2023-04-25T00:33:54;99819.66;;;8.58;100.00
32131;BME280;18639;50.716;7.086;2023-04-25T00:36:19;99800.47;;;8.50;100.00
32131;BME280;18639;50.716;7.086;2023-04-25T00:38:44;99823.38;;;8.54;100.00
32131;BME280;18639;50.716;7.086;2023-04-25T00:41:10;99822.94;;;8.48;100.00
32131;BME280;18639;50.716;7.086;2023-04-25T00:43:36;99808.34;;;8.34;100.00
32131;BME280;18639;50.716;7.086;2023-04-25T00:46:02;99830.31;;;8.39;100.00
32131;BME280;18639;50.716;7.086;2023-04-25T00:48:28;99817.94;;;8.32;100.00
32131;BME280;18639;50.716;7.086;2023-04-25T00:50:54;99820.13;;;8.38;100.00
32131;BME280;18639;50.716;7.086;2023-04-25T00:53:22;99823.22;;;8.29;100.00
32131;BME280;18639;50.716;7.086;2023-04-25T00:55:48;99821.59;;;8.28;100.00
32131;BME280;18639;50.716;7.086;2023-04-25T00:58:16;99787.25;;;8.15;100.00
32131;BME280;18639;50.716;7.086;2023-04-25T01:00:42;99795.81;;;8.15;100.00
32131;BME280;18639;50.716;7.086;2023-04-25T01:03:08;99815.91;;;8.23;100.00
32131;BME280;18639;50.716;7.086;2023-04-25T01:05:35;99791.72;;;7.98;100.00
32131;BME280;18639;50.716;7.086;2023-04-25T01:08:00;99819.72;;;8.17;100.00
32131;BME280;18639;50.716;7.086;2023-04-25T01:10:26;99806.56;;;8.08;100.00
32131;BME280;18639;50.716;7.086;2023-04-25T01:12:51;99816.16;;;8.06;100.00
32131;BME280;18639;50.716;7.086;2023-04-25T01:15:17;99808.91;;;7.98;100.00
32131;BME280;18639;50.716;7.086;2023-04-25T01:17:42;99821.31;;;7.91;100.00
32131;BME280;18639;50.716;7.086;2023-04-25T01:20:09;99821.69;;;7.85;100.00
32131;BME280;18639;50.716;7.086;2023-04-25T01:22:36;99805.19;;;7.75;100.00
32131;BME280;18639;50.716;7.086;2023-04-25T01:25:01;99818.88;;;7.76;100.00
32131;BME280;18639;50.716;7.086;2023-04-25T01:27:27;99820.81;;;7.72;100.00
32131;BME280;18639;50.716;7.086;2023-04-25T01:29:54;99822.91;;;7.66;100.00
32131;BME280;18639;50.716;7.086;2023-04-25T01:32:20;99820.91;;;7.56;100.00
32131;BME280;18639;50.716;7.086;2023-04-25T01:34:46;99811.09;;;7.49;100.00
32131;BME280;18639;50.716;7.086;2023-04-25T01:37:11;99826.16;;;7.55;100.00
32131;BME280;18639;50.716;7.086;2023-04-25T01:39:37;99831.28;;;7.55;100.00
32131;BME280;18639;50.716;7.086;2023-04-25T01:42:02;99827.63;;;7.45;100.00
32131;BME280;18639;50.716;7.086;2023-04-25T01:44:27;99823.03;;;7.36;100.00
32131;BME280;18639;50.716;7.086;2023-04-25T01:46:53;99846.63;;;7.42;100.00
32131;BME280;18639;50.716;7.086;2023-04-25T01:49:18;99839.38;;;7.35;100.00
32131;BME280;18639;50.716;7.086;2023-04-25T01:51:44;99827.44;;;7.19;100.00
32131;BME280;18639;50.716;7.086;2023-04-25T01:54:10;99832.28;;;7.24;100.00
32131;BME280;18639;50.716;7.086;2023-04-25T01:56:37;99844.22;;;7.25;100.00
32131;BME280;18639;50.716;7.086;2023-04-25T01:59:04;99829.53;;;7.13;100.00
32131;BME280;18639;50.716;7.086;2023-04-25T02:01:29;99840.56;;;7.15;100.00
32131;BME280;18639;50.716;7.086;2023-04-25T02:03:55;99848.16;;;7.16;100.00
32131;BME280;18639;50.716;7.086;2023-04-25T02:06:20;99846.03;;;7.09;100.00
32131;BME280;18639;50.716;7.086;2023-04-25T02:08:45;99863.34;;;7.05;100.00
32131;BME280;18639;50.716;7.086;2023-04-25T02:11:11;99865.13;;;7.05;100.00
32131;BME280;18639;50.716;7.086;2023-04-25T02:13:36;99841.31;;;6.87;100.00
32131;BME280;18639;50.716;7.086;2023-04-25T02:16:01;99840.41;;;6.88;100.00
32131;BME280;18639;50.716;7.086;2023-04-25T02:18:27;99849.41;;;6.95;100.00
32131;BME280;18639;50.716;7.086;2023-04-25T02:20:52;99844.88;;;6.85;100.00
32131;BME280;18639;50.716;7.086;2023-04-25T02:23:17;99845.34;;;6.91;100.00
32131;BME280;18639;50.716;7.086;2023-04-25T02:25:44;99833.88;;;6.83;100.00
32131;BME280;18639;50.716;7.086;2023-04-25T02:28:09;99855.63;;;6.91;100.00
32131;BME280;18639;50.716;7.086;2023-04-25T02:30:35;99837.44;;;6.80;100.00
32131;BME280;18639;50.716;7.086;2023-04-25T02:33:01;99851.03;;;6.82;100.00
32131;BME280;18639;50.716;7.086;2023-04-25T02:35:26;99835.47;;;6.69;100.00
32131;BME280;18639;50.716;7.086;2023-04-25T02:37:51;99858.81;;;6.81;100.00
32131;BME280;18639;50.716;7.086;2023-04-25T02:40:17;99852.00;;;6.80;100.00
32131;BME280;18639;50.716;7.086;2023-04-25T02:42:42;99852.19;;;6.76;100.00
32131;BME280;18639;50.716;7.086;2023-04-25T02:45:08;99849.56;;;6.78;100.00
32131;BME280;18639;50.716;7.086;2023-04-25T02:47:33;99860.38;;;6.83;100.00
32131;BME280;18639;50.716;7.086;2023-04-25T02:49:59;99857.91;;;6.82;100.00
32131;BME280;18639;50.716;7.086;2023-04-25T02:52:24;99867.25;;;6.83;100.00
32131;BME280;18639;50.716;7.086;2023-04-25T02:54:50;99856.25;;;6.81;100.00
32131;BME280;18639;50.716;7.086;2023-04-25T02:57:15;99826.38;;;6.64;100.00
32131;BME280;18639;50.716;7.086;2023-04-25T02:59:41;99861.28;;;6.82;100.00
32131;BME280;18639;50.716;7.086;2023-04-25T03:02:06;99850.34;;;6.78;100.00
32131;BME280;18639;50.716;7.086;2023-04-25T03:04:31;99844.50;;;6.76;100.00
32131;BME280;18639;50.716;7.086;2023-04-25T03:06:58;99861.94;;;6.86;100.00
32131;BME280;18639;50.716;7.086;2023-04-25T03:09:24;99867.06;;;6.86;100.00
32131;BME280;18639;50.716;7.086;2023-04-25T03:11:49;99838.94;;;6.68;100.00
32131;BME280;18639;50.716;7.086;2023-04-25T03:14:14;99856.31;;;6.79;100.00
32131;BME280;18639;50.716;7.086;2023-04-25T03:16:40;99857.16;;;6.80;100.00
32131;BME280;18639;50.716;7.086;2023-04-25T03:19:05;99811.66;;;6.52;100.00
32131;BME280;18639;50.716;7.086;2023-04-25T03:21:31;99859.72;;;6.80;100.00
32131;BME280;18639;50.716;7.086;2023-04-25T03:23:58;99862.13;;;6.83;100.00
32131;BME280;18639;50.716;7.086;2023-04-25T03:26:23;99843.25;;;6.68;100.00
32131;BME280;18639;50.716;7.086;2023-04-25T03:28:49;99852.47;;;6.72;100.00
32131;BME280;18639;50.716;7.086;2023-04-25T03:31:14;99858.16;;;6.77;100.00
32131;BME280;18639;50.716;7.086;2023-04-25T03:33:39;99841.78;;;6.64;100.00
32131;BME280;18639;50.716;7.086;2023-04-25T03:36:05;99858.50;;;6.71;100.00
32131;BME280;18639;50.716;7.086;2023-04-25T03:38:31;99840.31;;;6.60;100.00
32131;BME280;18639;50.716;7.086;2023-04-25T03:40:56;99848.00;;;6.60;100.00
32131;BME280;18639;50.716;7.086;2023-04-25T03:43:21;99861.97;;;6.70;100.00
32131;BME280;18639;50.716;7.086;2023-04-25T03:45:46;99866.75;;;6.62;100.00
32131;BME280;18639;50.716;7.086;2023-04-25T03:48:12;99839.19;;;6.50;100.00
32131;BME280;18639;50.716;7.086;2023-04-25T03:50:37;99868.69;;;6.72;100.00
32131;BME280;18639;50.716;7.086;2023-04-25T03:53:02;99865.94;;;6.75;100.00
32131;BME280;18639;50.716;7.086;2023-04-25T03:55:28;99872.47;;;6.81;100.00
32131;BME280;18639;50.716;7.086;2023-04-25T03:57:53;99850.88;;;6.69;100.00
32131;BME280;18639;50.716;7.086;2023-04-25T04:00:18;99880.09;;;6.83;100.00
32131;BME280;18639;50.716;7.086;2023-04-25T04:02:44;99878.66;;;6.93;100.00
32131;BME280;18639;50.716;7.086;2023-04-25T04:05:09;99878.00;;;6.89;100.00
32131;BME280;18639;50.716;7.086;2023-04-25T04:07:34;99860.84;;;6.90;100.00
32131;BME280;18639;50.716;7.086;2023-04-25T04:10:07;99874.00;;;6.99;100.00
32131;BME280;18639;50.716;7.086;2023-04-25T04:12:33;99872.66;;;7.08;100.00
32131;BME280;18639;50.716;7.086;2023-04-25T04:14:58;99874.72;;;7.01;100.00
32131;BME280;18639;50.716;7.086;2023-04-25T04:17:23;99881.38;;;7.19;100.00
32131;BME280;18639;50.716;7.086;2023-04-25T04:19:48;99892.50;;;7.20;100.00
32131;BME280;18639;50.716;7.086;2023-04-25T04:22:14;99863.19;;;7.08;100.00
32131;BME280;18639;50.716;7.086;2023-04-25T04:24:40;99894.09;;;7.37;100.00
32131;BME280;18639;50.716;7.086;2023-04-25T04:27:09;99880.56;;;7.33;100.00
32131;BME280;18639;50.716;7.086;2023-04-25T04:29:34;99901.97;;;7.48;100.00
32131;BME280;18639;50.716;7.086;2023-04-25T04:32:00;99892.06;;;7.42;100.00
32131;BME280;18639;50.716;7.086;2023-04-25T04:34:26;99899.22;;;7.51;100.00
32131;BME280;18639;50.716;7.086;2023-04-25T04:36:52;99890.50;;;7.53;100.00
32131;BME280;18639;50.716;7.086;2023-04-25T04:39:17;99878.13;;;7.46;100.00
32131;BME280;18639;50.716;7.086;2023-04-25T04:41:42;99905.69;;;7.58;100.00
32131;BME280;18639;50.716;7.086;2023-04-25T04:44:08;99886.28;;;7.52;100.00
32131;BME280;18639;50.716;7.086;2023-04-25T04:46:34;99913.28;;;7.59;100.00
32131;BME280;18639;50.716;7.086;2023-04-25T04:49:04;99907.22;;;7.60;100.00
32131;BME280;18639;50.716;7.086;2023-04-25T04:51:30;99913.94;;;7.63;100.00
32131;BME280;18639;50.716;7.086;2023-04-25T04:53:56;99920.81;;;7.63;100.00
32131;BME280;18639;50.716;7.086;2023-04-25T04:56:23;99916.69;;;7.60;100.00
32131;BME280;18639;50.716;7.086;2023-04-25T04:58:50;99877.72;;;7.38;100.00
32131;BME280;18639;50.716;7.086;2023-04-25T05:01:16;99916.50;;;7.63;100.00
32131;BME280;18639;50.716;7.086;2023-04-25T05:03:41;99909.25;;;7.55;100.00
32131;BME280;18639;50.716;7.086;2023-04-25T05:06:06;99920.34;;;7.70;100.00
32131;BME280;18639;50.716;7.086;2023-04-25T05:08:31;99907.84;;;7.64;100.00
32131;BME280;18639;50.716;7.086;2023-04-25T05:10:57;99923.75;;;7.71;100.00
32131;BME280;18639;50.716;7.086;2023-04-25T05:13:22;99925.97;;;7.77;100.00
32131;BME280;18639;50.716;7.086;2023-04-25T05:15:47;99927.78;;;7.75;100.00
32131;BME280;18639;50.716;7.086;2023-04-25T05:18:12;99929.28;;;7.79;100.00
32131;BME280;18639;50.716;7.086;2023-04-25T05:20:38;99924.84;;;7.81;100.00
32131;BME280;18639;50.716;7.086;2023-04-25T05:23:03;99948.09;;;7.93;100.00
32131;BME280;18639;50.716;7.086;2023-04-25T05:25:29;99922.19;;;7.82;100.00
32131;BME280;18639;50.716;7.086;2023-04-25T05:27:54;99958.59;;;8.04;100.00
32131;BME280;18639;50.716;7.086;2023-04-25T05:30:19;99939.38;;;7.96;100.00
32131;BME280;18639;50.716;7.086;2023-04-25T05:32:45;99948.03;;;7.95;100.00
32131;BME280;18639;50.716;7.086;2023-04-25T05:35:11;99960.03;;;8.09;100.00
32131;BME280;18639;50.716;7.086;2023-04-25T05:37:37;99927.72;;;7.90;100.00
32131;BME280;18639;50.716;7.086;2023-04-25T05:40:02;99936.72;;;7.97;100.00
32131;BME280;18639;50.716;7.086;2023-04-25T05:42:32;99941.69;;;8.00;100.00
32131;BME280;18639;50.716;7.086;2023-04-25T05:44:57;99949.03;;;8.07;100.00
32131;BME280;18639;50.716;7.086;2023-04-25T05:47:22;99961.97;;;8.19;100.00
32131;BME280;18639;50.716;7.086;2023-04-25T05:49:47;99951.88;;;8.16;100.00
32131;BME280;18639;50.716;7.086;2023-04-25T05:52:13;99973.84;;;8.22;100.00
32131;BME280;18639;50.716;7.086;2023-04-25T05:54:40;99965.91;;;8.25;100.00
32131;BME280;18639;50.716;7.086;2023-04-25T05:57:05;99926.88;;;8.04;100.00
32131;BME280;18639;50.716;7.086;2023-04-25T05:59:31;99929.91;;;7.96;100.00
32131;BME280;18639;50.716;7.086;2023-04-25T06:01:56;99976.03;;;8.28;100.00
32131;BME280;18639;50.716;7.086;2023-04-25T06:04:21;99979.28;;;8.31;100.00
32131;BME280;18639;50.716;7.086;2023-04-25T06:06:47;99989.19;;;8.37;100.00
32131;BME280;18639;50.716;7.086;2023-04-25T06:09:12;99985.44;;;8.43;100.00
32131;BME280;18639;50.716;7.086;2023-04-25T06:11:37;99990.56;;;8.43;100.00
32131;BME280;18639;50.716;7.086;2023-04-25T06:14:02;99971.91;;;8.39;100.00
32131;BME280;18639;50.716;7.086;2023-04-25T06:16:28;99985.78;;;8.51;100.00
32131;BME280;18639;50.716;7.086;2023-04-25T06:18:53;99966.09;;;8.50;100.00
32131;BME280;18639;50.716;7.086;2023-04-25T06:21:21;99979.50;;;8.69;100.00
32131;BME280;18639;50.716;7.086;2023-04-25T06:23:46;99968.44;;;8.67;100.00
32131;BME280;18639;50.716;7.086;2023-04-25T06:26:12;99989.16;;;8.93;100.00
32131;BME280;18639;50.716;7.086;2023-04-25T06:28:37;99993.00;;;9.00;100.00
32131;BME280;18639;50.716;7.086;2023-04-25T06:31:03;99992.09;;;9.01;100.00
32131;BME280;18639;50.716;7.086;2023-04-25T06:33:28;99987.09;;;8.98;100.00
32131;BME280;18639;50.716;7.086;2023-04-25T06:35:53;99995.41;;;9.03;100.00
32131;BME280;18639;50.716;7.086;2023-04-25T06:38:19;99990.25;;;9.03;100.00
32131;BME280;18639;50.716;7.086;2023-04-25T06:40:44;99983.44;;;9.02;100.00
32131;BME280;18639;50.716;7.086;2023-04-25T06:43:10;99995.28;;;9.04;100.00
32131;BME280;18639;50.716;7.086;2023-04-25T06:45:35;99979.50;;;8.96;100.00
32131;BME280;18639;50.716;7.086;2023-04-25T06:48:00;99985.34;;;8.98;100.00
32131;BME280;18639;50.716;7.086;2023-04-25T06:50:26;99989.41;;;9.02;100.00
32131;BME280;18639;50.716;7.086;2023-04-25T06:52:51;99981.16;;;8.97;100.00
32131;BME280;18639;50.716;7.086;2023-04-25T06:55:17;99986.72;;;9.04;100.00
32131;BME280;18639;50.716;7.086;2023-04-25T06:57:42;99992.94;;;9.14;100.00
32131;BME280;18639;50.716;7.086;2023-04-25T07:00:08;100008.88;;;9.33;100.00
32131;BME280;18639;50.716;7.086;2023-04-25T07:02:34;100004.47;;;9.48;100.00
32131;BME280;18639;50.716;7.086;2023-04-25T07:05:00;100002.75;;;9.73;100.00
32131;BME280;18639;50.716;7.086;2023-04-25T07:07:26;100000.09;;;9.88;100.00
32131;BME280;18639;50.716;7.086;2023-04-25T07:09:51;100006.69;;;10.04;100.00
32131;BME280;18639;50.716;7.086;2023-04-25T07:12:17;100008.38;;;10.18;100.00
32131;BME280;18639;50.716;7.086;2023-04-25T07:14:42;100012.25;;;10.11;100.00
32131;BME280;18639;50.716;7.086;2023-04-25T07:17:07;100014.22;;;9.95;100.00
32131;BME280;18639;50.716;7.086;2023-04-25T07:19:33;100012.78;;;9.91;99.92
32131;BME280;18639;50.716;7.086;2023-04-25T07:21:58;100008.44;;;9.79;100.00
32131;BME280;18639;50.716;7.086;2023-04-25T07:24:23;100019.50;;;9.81;99.31
32131;BME280;18639;50.716;7.086;2023-04-25T07:26:49;100025.66;;;9.78;97.72
32131;BME280;18639;50.716;7.086;2023-04-25T07:29:14;100021.16;;;9.82;97.53
32131;BME280;18639;50.716;7.086;2023-04-25T07:31:39;100024.34;;;9.85;97.51
32131;BME280;18639;50.716;7.086;2023-04-25T07:34:05;100020.13;;;9.97;99.05
32131;BME280;18639;50.716;7.086;2023-04-25T07:36:31;100024.16;;;10.13;99.28
32131;BME280;18639;50.716;7.086;2023-04-25T07:38:56;100013.91;;;10.12;97.50
32131;BME280;18639;50.716;7.086;2023-04-25T07:41:21;100025.91;;;10.13;95.73
32131;BME280;18639;50.716;7.086;2023-04-25T07:43:47;100011.22;;;9.88;94.77
32131;BME280;18639;50.716;7.086;2023-04-25T07:46:12;100029.28;;;10.01;94.31
32131;BME280;18639;50.716;7.086;2023-04-25T07:48:37;100030.22;;;10.00;91.91
32131;BME280;18639;50.716;7.086;2023-04-25T07:51:03;100012.47;;;9.95;91.71
32131;BME280;18639;50.716;7.086;2023-04-25T07:53:30;100027.38;;;10.17;93.38
32131;BME280;18639;50.716;7.086;2023-04-25T07:55:55;100031.91;;;10.26;92.99
32131;BME280;18639;50.716;7.086;2023-04-25T07:58:20;100039.09;;;10.59;91.77
32131;BME280;18639;50.716;7.086;2023-04-25T08:00:47;100052.97;;;10.94;90.90
32131;BME280;18639;50.716;7.086;2023-04-25T08:03:13;100057.16;;;11.08;84.09
32131;BME280;18639;50.716;7.086;2023-04-25T08:05:40;100043.41;;;11.31;84.43
32131;BME280;18639;50.716;7.086;2023-04-25T08:08:42;100002.59;;;11.11;80.03
32131;BME280;18639;50.716;7.086;2023-04-25T08:11:07;100049.13;;;11.48;81.88
32131;BME280;18639;50.716;7.086;2023-04-25T08:13:33;100052.78;;;11.56;78.37
32131;BME280;18639;50.716;7.086;2023-04-25T08:15:58;100043.50;;;11.54;81.62
32131;BME280;18639;50.716;7.086;2023-04-25T08:18:23;100057.38;;;11.53;74.14
32131;BME280;18639;50.716;7.086;2023-04-25T08:20:48;100061.31;;;11.46;72.35
32131;BME280;18639;50.716;7.086;2023-04-25T08:23:14;100077.41;;;11.14;75.81
32131;BME280;18639;50.716;7.086;2023-04-25T08:25:39;100066.41;;;10.87;74.46
32131;BME280;18639;50.716;7.086;2023-04-25T08:28:05;100093.00;;;10.89;71.97
32131;BME280;18639;50.716;7.086;2023-04-25T08:30:30;100093.13;;;10.75;73.52
32131;BME280;18639;50.716;7.086;2023-04-25T08:32:56;100077.16;;;10.44;78.09
32131;BME280;18639;50.716;7.086;2023-04-25T08:35:23;100091.53;;;10.36;79.83
32131;BME280;18639;50.716;7.086;2023-04-25T08:37:49;100105.84;;;10.27;79.23
32131;BME280;18639;50.716;7.086;2023-04-25T08:40:15;100111.03;;;10.27;83.14
32131;BME280;18639;50.716;7.086;2023-04-25T08:42:44;100106.56;;;10.04;80.37
32131;BME280;18639;50.716;7.086;2023-04-25T08:45:09;100122.56;;;10.09;82.92
32131;BME280;18639;50.716;7.086;2023-04-25T08:47:37;100106.72;;;9.88;84.37
32131;BME280;18639;50.716;7.086;2023-04-25T08:50:04;100117.16;;;9.99;82.78
32131;BME280;18639;50.716;7.086;2023-04-25T08:52:36;100109.59;;;9.84;83.53
32131;BME280;18639;50.716;7.086;2023-04-25T08:55:01;100133.47;;;10.00;84.01
32131;BME280;18639;50.716;7.086;2023-04-25T08:57:28;100140.59;;;9.96;85.11
32131;BME280;18639;50.716;7.086;2023-04-25T08:59:57;100142.75;;;9.90;84.75
32131;BME280;18639;50.716;7.086;2023-04-25T09:02:24;100145.84;;;9.95;81.23
32131;BME280;18639;50.716;7.086;2023-04-25T09:04:49;100153.53;;;10.09;81.79
32131;BME280;18639;50.716;7.086;2023-04-25T09:07:15;100135.88;;;10.15;81.16
32131;BME280;18639;50.716;7.086;2023-04-25T09:09:43;100151.53;;;10.65;76.79
32131;BME280;18639;50.716;7.086;2023-04-25T09:12:09;100161.91;;;11.50;75.86
32131;BME280;18639;50.716;7.086;2023-04-25T09:14:35;100160.25;;;12.32;69.63
32131;BME280;18639;50.716;7.086;2023-04-25T09:17:01;100149.69;;;12.79;61.31
32131;BME280;18639;50.716;7.086;2023-04-25T09:19:35;100139.22;;;12.92;60.76
32131;BME280;18639;50.716;7.086;2023-04-25T09:22:03;100154.44;;;12.96;59.62
32131;BME280;18639;50.716;7.086;2023-04-25T09:24:40;100138.28;;;12.71;56.29
32131;BME280;18639;50.716;7.086;2023-04-25T09:27:07;100151.81;;;12.74;56.78
32131;BME280;18639;50.716;7.086;2023-04-25T09:29:37;100144.94;;;12.40;55.08
32131;BME280;18639;50.716;7.086;2023-04-25T09:34:57;100154.63;;;12.38;58.00
32131;BME280;18639;50.716;7.086;2023-04-25T09:37:26;100170.09;;;12.15;58.34
32131;BME280;18639;50.716;7.086;2023-04-25T09:39:59;100179.69;;;12.02;57.46
32131;BME280;18639;50.716;7.086;2023-04-25T09:42:27;100183.06;;;11.80;60.45
32131;BME280;18639;50.716;7.086;2023-04-25T09:44:54;100186.81;;;11.64;60.87
32131;BME280;18639;50.716;7.086;2023-04-25T09:47:21;100167.75;;;11.41;60.49
32131;BME280;18639;50.716;7.086;2023-04-25T09:49:48;100193.22;;;11.34;61.57
32131;BME280;18639;50.716;7.086;2023-04-25T09:52:16;100198.19;;;11.37;62.47
32131;BME280;18639;50.716;7.086;2023-04-25T09:54:42;100187.63;;;11.28;61.81
32131;BME280;18639;50.716;7.086;2023-04-25T09:57:13;100192.03;;;11.15;61.84
32131;BME280;18639;50.716;7.086;2023-04-25T09:59:43;100191.38;;;11.24;60.84
32131;BME280;18639;50.716;7.086;2023-04-25T10:02:09;100189.47;;;11.38;64.45
32131;BME280;18639;50.716;7.086;2023-04-25T10:04:35;100201.19;;;11.68;62.94
32131;BME280;18639;50.716;7.086;2023-04-25T10:07:03;100189.16;;;11.67;64.13
32131;BME280;18639;50.716;7.086;2023-04-25T10:09:31;100197.81;;;11.91;62.01
32131;BME280;18639;50.716;7.086;2023-04-25T10:11:59;100212.31;;;12.29;60.13
32131;BME280;18639;50.716;7.086;2023-04-25T10:14:24;100208.72;;;12.18;57.61
32131;BME280;18639;50.716;7.086;2023-04-25T10:16:51;100217.13;;;12.22;59.77
32131;BME280;18639;50.716;7.086;2023-04-25T10:19:19;100222.78;;;12.03;55.97
32131;BME280;18639;50.716;7.086;2023-04-25T10:21:54;100218.38;;;11.69;57.89
32131;BME280;18639;50.716;7.086;2023-04-25T10:24:21;100220.66;;;11.61;59.76
32131;BME280;18639;50.716;7.086;2023-04-25T10:26:47;100222.41;;;11.60;59.49
32131;BME280;18639;50.716;7.086;2023-04-25T10:29:21;100221.22;;;11.53;60.57
32131;BME280;18639;50.716;7.086;2023-04-25T10:31:47;100212.88;;;11.37;59.62
32131;BME280;18639;50.716;7.086;2023-04-25T10:34:12;100227.16;;;11.43;59.76
32131;BME280;18639;50.716;7.086;2023-04-25T10:36:38;100231.00;;;11.61;61.11
32131;BME280;18639;50.716;7.086;2023-04-25T10:39:05;100238.44;;;11.65;58.17
32131;BME280;18639;50.716;7.086;2023-04-25T10:41:55;100230.50;;;11.92;61.91
32131;BME280;18639;50.716;7.086;2023-04-25T10:44:21;100230.06;;;11.98;59.11
32131;BME280;18639;50.716;7.086;2023-04-25T10:46:47;100243.38;;;12.17;58.16
32131;BME280;18639;50.716;7.086;2023-04-25T10:49:29;100238.56;;;12.35;60.20
32131;BME280;18639;50.716;7.086;2023-04-25T10:54:41;100234.38;;;12.10;57.69
32131;BME280;18639;50.716;7.086;2023-04-25T10:57:07;100239.25;;;11.91;56.69
32131;BME280;18639;50.716;7.086;2023-04-25T10:59:32;100224.19;;;11.60;58.13
32131;BME280;18639;50.716;7.086;2023-04-25T11:01:57;100212.47;;;11.30;57.70
32131;BME280;18639;50.716;7.086;2023-04-25T11:04:31;100244.44;;;11.29;57.97
32131;BME280;18639;50.716;7.086;2023-04-25T11:09:36;100232.47;;;11.03;62.61
32131;BME280;18639;50.716;7.086;2023-04-25T11:12:03;100231.31;;;11.07;63.58
32131;BME280;18639;50.716;7.086;2023-04-25T11:14:29;100212.91;;;11.12;63.74
32131;BME280;18639;50.716;7.086;2023-04-25T11:16:55;100237.84;;;11.62;62.92
32131;BME280;18639;50.716;7.086;2023-04-25T11:19:22;100233.00;;;11.94;60.11
32131;BME280;18639;50.716;7.086;2023-04-25T11:21:47;100226.13;;;12.05;60.49
32131;BME280;18639;50.716;7.086;2023-04-25T11:24:12;100218.00;;;12.10;60.01
32131;BME280;18639;50.716;7.086;2023-04-25T11:26:38;100241.13;;;12.24;59.52
32131;BME280;18639;50.716;7.086;2023-04-25T11:29:03;100222.34;;;12.33;59.87
32131;BME280;18639;50.716;7.086;2023-04-25T11:31:29;100230.06;;;11.98;57.13
32131;BME280;18639;50.716;7.086;2023-04-25T11:33:58;100236.09;;;12.22;58.46
32131;BME280;18639;50.716;7.086;2023-04-25T11:36:25;100240.09;;;12.27;60.11
32131;BME280;18639;50.716;7.086;2023-04-25T11:38:51;100239.84;;;12.30;56.50
32131;BME280;18639;50.716;7.086;2023-04-25T11:41:17;100220.81;;;11.83;57.31
32131;BME280;18639;50.716;7.086;2023-04-25T11:43:43;100244.13;;;11.83;57.77
32131;BME280;18639;50.716;7.086;2023-04-25T11:46:09;100237.19;;;11.34;58.50
32131;BME280;18639;50.716;7.086;2023-04-25T11:48:43;100244.16;;;11.21;59.96
32131;BME280;18639;50.716;7.086;2023-04-25T11:51:12;100230.53;;;10.94;62.10
32131;BME280;18639;50.716;7.086;2023-04-25T11:53:41;100241.88;;;10.91;63.49
32131;BME280;18639;50.716;7.086;2023-04-25T11:56:10;100236.28;;;10.85;62.18
32131;BME280;18639;50.716;7.086;2023-04-25T11:58:55;100252.03;;;10.82;64.72
32131;BME280;18639;50.716;7.086;2023-04-25T12:01:35;100258.00;;;10.70;63.46
32131;BME280;18639;50.716;7.086;2023-04-25T12:04:21;100255.13;;;10.62;62.66
32131;BME280;18639;50.716;7.086;2023-04-25T12:06:48;100264.81;;;10.58;65.34
32131;BME280;18639;50.716;7.086;2023-04-25T12:09:15;100245.84;;;10.32;66.04
32131;BME280;18639;50.716;7.086;2023-04-25T12:14:25;100270.63;;;10.62;62.83
32131;BME280;18639;50.716;7.086;2023-04-25T12:16:58;100231.53;;;10.53;61.64
32131;BME280;18639;50.716;7.086;2023-04-25T12:20:00;100228.00;;;10.54;61.23
32131;BME280;18639;50.716;7.086;2023-04-25T12:25:51;100216.25;;;10.76;60.20
32131;BME280;18639;50.716;7.086;2023-04-25T12:28:24;100241.56;;;11.09;55.74
32131;BME280;18639;50.716;7.086;2023-04-25T12:33:23;100225.44;;;11.05;56.03
32131;BME280;18639;50.716;7.086;2023-04-25T12:35:48;100268.56;;;11.30;55.77
32131;BME280;18639;50.716;7.086;2023-04-25T12:38:23;100269.06;;;11.35;57.71
32131;BME280;18639;50.716;7.086;2023-04-25T12:40:49;100277.88;;;11.32;57.58
32131;BME280;18639;50.716;7.086;2023-04-25T12:43:15;100270.41;;;11.28;60.10
32131;BME280;18639;50.716;7.086;2023-04-25T12:45:40;100256.56;;;11.04;57.35
32131;BME280;18639;50.716;7.086;2023-04-25T12:48:06;100274.97;;;11.24;58.24
32131;BME280;18639;50.716;7.086;2023-04-25T12:50:31;100244.16;;;11.09;55.65
32131;BME280;18639;50.716;7.086;2023-04-25T12:53:28;100270.41;;;11.28;58.52
32131;BME280;18639;50.716;7.086;2023-04-25T12:56:14;100223.28;;;10.99;59.60
32131;BME280;18639;50.716;7.086;2023-04-25T12:58:39;100248.38;;;11.35;57.94
32131;BME280;18639;50.716;7.086;2023-04-25T13:01:05;100189.34;;;11.04;61.13
32131;BME280;18639;50.716;7.086;2023-04-25T13:03:53;100257.53;;;11.64;59.40
32131;BME280;18639;50.716;7.086;2023-04-25T13:06:22;100266.50;;;11.71;58.78
32131;BME280;18639;50.716;7.086;2023-04-25T13:12:33;100247.16;;;12.01;55.61
32131;BME280;18639;50.716;7.086;2023-04-25T13:15:39;100199.03;;;11.62;54.44